Chicago, Illinois
Current Conditions -  °F | °C
As of 4:53 PM on Thursday 27 Nov 2014 (Local Time) from KMDW Reporting Station
Light Snow Light Snow  
Wind Chill: 16°   Ceiling: 3600
Heat Index: 25°   Visibility: 9mi
Dew Point: 15°   Wind: 8mph
Humidity: 66%   Direction: 320°NW
Pressure: 30.39"   Gusts: NA
Location:  41.88°N, 87.63°W
Report Text: KMDW 272253Z 32007KT 9SM -SN FEW030 OVC036 M04/M09 A3039 RMK AO2 SLP305 P0000 T10391094
Loading
Personal Weather Stations






























Interactive Weather Map New forecast layout! Learn more

10-Day Weather Forecast

Advertisements
Track Severe Weather on mobile